Time;durP1;ratioP1;P1;durP2;ratioP2;P2;SDS_P1;SDS_P2;PMS_P1;PMS_P2;Temp;Humidity;BMP_temperature;BMP_pressure;BME280_temperature;BME280_humidity;BME280_pressure;Samples;Min_cycle;Max_cycle;Signal;HPM_P1;HPM_P2
2021/09/29 00:04:42;;;;;;;7.57;2.28;;;12.10;99.90;;;;;;6775872;87;20188;-79
2021/09/29 00:14:42;;;;;;;6.50;2.05;;;11.90;99.90;;;;;;6774864;87;20176;-80
2021/09/29 00:24:43;;;;;;;8.68;1.90;;;11.80;99.90;;;;;;6773889;87;20188;-79
2021/09/29 00:34:43;;;;;;;7.82;1.98;;;11.70;99.90;;;;;;6773420;87;20203;-79
2021/09/29 00:44:45;;;;;;;7.70;2.00;;;11.70;99.90;;;;;;6771267;87;20184;-79
2021/09/29 00:54:45;;;;;;;9.07;1.95;;;11.60;99.90;;;;;;6773982;87;20321;-79
2021/09/29 01:04:47;;;;;;;6.22;2.00;;;11.60;99.90;;;;;;6775825;87;20199;-78
2021/09/29 01:14:50;;;;;;;8.32;2.17;;;11.60;99.90;;;;;;6769600;87;20183;-78
2021/09/29 01:25:03;;;;;;;6.55;2.10;;;11.60;99.90;;;;;;6769920;87;20234;-79
2021/09/29 01:35:04;;;;;;;9.15;2.12;;;11.60;99.90;;;;;;6773159;87;20176;-79
2021/09/29 01:45:05;;;;;;;5.87;2.40;;;11.50;99.90;;;;;;6771739;87;20344;-79
2021/09/29 01:55:07;;;;;;;5.20;2.00;;;11.50;99.90;;;;;;6774774;87;20189;-79
2021/09/29 02:05:08;;;;;;;8.63;2.30;;;11.50;99.90;;;;;;6772778;87;20188;-79
2021/09/29 02:15:09;;;;;;;7.70;2.58;;;11.50;99.90;;;;;;6775580;87;20213;-79
2021/09/29 02:25:10;;;;;;;7.28;2.08;;;11.40;99.90;;;;;;6771296;87;20198;-79
2021/09/29 02:35:12;;;;;;;3.20;2.10;;;11.50;99.90;;;;;;6775798;87;20209;-79
2021/09/29 02:45:12;;;;;;;3.37;1.70;;;11.40;99.90;;;;;;6769982;87;20252;-79
2021/09/29 02:55:13;;;;;;;5.62;1.67;;;11.40;99.90;;;;;;6764376;87;20208;-78
2021/09/29 03:05:13;;;;;;;4.87;1.80;;;11.30;99.90;;;;;;6772937;87;20718;-79
2021/09/29 03:15:14;;;;;;;6.20;2.00;;;11.30;99.90;;;;;;6770614;87;20532;-79
2021/09/29 03:25:16;;;;;;;6.35;1.73;;;11.30;99.90;;;;;;6771599;87;20285;-79
2021/09/29 03:35:17;;;;;;;5.05;1.73;;;11.30;99.90;;;;;;6769171;87;20345;-79
2021/09/29 03:45:17;;;;;;;2.78;1.70;;;11.20;99.90;;;;;;6778034;87;20212;-79
2021/09/29 03:55:18;;;;;;;3.85;1.58;;;11.20;99.90;;;;;;6772520;87;21186;-79
2021/09/29 04:05:59;;;;;;;7.12;1.95;;;11.10;99.90;;;;;;6772315;77;20196;-77
2021/09/29 04:16:00;;;;;;;8.40;2.45;;;11.10;99.90;;;;;;6744821;88;20312;-77
2021/09/29 04:26:02;;;;;;;5.32;2.00;;;11.10;99.90;;;;;;6744902;88;20192;-78
2021/09/29 04:36:04;;;;;;;6.50;2.28;;;11.10;99.90;;;;;;6745983;88;20214;-78
2021/09/29 04:46:04;;;;;;;9.07;2.58;;;11.10;99.90;;;;;;6744451;88;20280;-78
2021/09/29 04:56:05;;;;;;;7.72;2.62;;;11.10;99.90;;;;;;6743622;88;20197;-79
2021/09/29 05:06:06;;;;;;;7.37;2.50;;;11.10;99.90;;;;;;6743734;88;20765;-78
2021/09/29 05:16:06;;;;;;;8.35;2.72;;;11.20;99.90;;;;;;6742308;88;20192;-76
2021/09/29 05:26:07;;;;;;;8.65;2.87;;;11.20;99.90;;;;;;6745560;88;20205;-79
2021/09/29 05:36:07;;;;;;;10.07;3.15;;;11.20;99.90;;;;;;6745555;88;20360;-77
2021/09/29 05:46:08;;;;;;;9.93;3.00;;;11.30;99.90;;;;;;6745951;88;20229;-77
2021/09/29 05:56:10;;;;;;;8.88;2.92;;;11.30;99.90;;;;;;6744249;88;20541;-78
2021/09/29 06:06:10;;;;;;;5.85;2.95;;;11.50;99.90;;;;;;6727123;88;20207;-77
2021/09/29 06:16:11;;;;;;;7.03;2.45;;;11.90;99.90;;;;;;6737841;88;20712;-78
2021/09/29 06:26:11;;;;;;;5.80;2.47;;;12.30;99.90;;;;;;6741798;88;20192;-78
2021/09/29 06:36:12;;;;;;;7.07;2.53;;;12.50;99.90;;;;;;6743869;88;20657;-77
2021/09/29 06:46:12;;;;;;;9.35;2.62;;;12.60;99.90;;;;;;6741724;88;20201;-79
2021/09/29 06:56:13;;;;;;;6.70;2.67;;;12.50;99.90;;;;;;6741728;88;20209;-77
2021/09/29 07:06:14;;;;;;;7.37;3.60;;;12.10;99.90;;;;;;6739410;88;20582;-77
2021/09/29 07:16:18;;;;;;;8.02;4.03;;;12.00;99.90;;;;;;6736076;88;20513;-77
2021/09/29 07:26:18;;;;;;;8.93;3.65;;;11.80;99.90;;;;;;6735105;88;20684;-77
2021/09/29 07:36:19;;;;;;;8.93;4.30;;;11.90;99.90;;;;;;6736619;88;20230;-77
2021/09/29 07:46:19;;;;;;;8.20;3.58;;;11.90;99.90;;;;;;6736956;88;20217;-77
2021/09/29 07:56:20;;;;;;;10.18;3.87;;;11.90;99.90;;;;;;6738333;88;20659;-79
2021/09/29 08:06:21;;;;;;;9.07;3.42;;;12.00;99.90;;;;;;6738245;88;20242;-77
2021/09/29 08:16:21;;;;;;;8.43;3.47;;;12.20;99.90;;;;;;6738737;88;20898;-77
2021/09/29 08:26:50;;;;;;;8.30;3.95;;;12.20;99.90;;;;;;6743721;88;20180;-78
2021/09/29 08:47:15;;;;;;;6.40;3.35;;;12.60;99.90;;;;;;6732445;88;20173;-78
2021/09/29 08:57:33;;;;;;;8.02;2.92;;;13.00;99.90;;;;;;6732000;88;20309;-78
2021/09/29 09:18:04;;;;;;;5.43;2.70;;;14.40;99.90;;;;;;6719730;88;20683;-78
2021/09/29 09:28:06;;;;;;;4.30;1.33;;;14.60;99.90;;;;;;6719788;88;20356;-77
2021/09/29 09:38:17;;;;;;;2.08;0.70;;;14.40;99.90;;;;;;6720350;88;20704;-78
2021/09/29 09:48:22;;;;;;;3.12;1.02;;;14.40;99.90;;;;;;6721587;88;20200;-80
2021/09/29 09:58:22;;;;;;;4.32;1.12;;;14.40;99.90;;;;;;6720314;88;20707;-76
2021/09/29 10:08:27;;;;;;;2.50;0.37;;;14.50;99.90;;;;;;6738201;77;20282;-79
2021/09/29 10:29:09;;;;;;;0.63;0.20;;;13.60;99.90;;;;;;6733447;88;20263;-80
2021/09/29 11:30:25;;;;;;;0.82;0.22;;;14.70;99.90;;;;;;6736156;88;20316;-78
2021/09/29 12:11:54;;;;;;;1.15;0.30;;;16.60;99.90;;;;;;6723845;88;20617;-77
2021/09/29 12:21:57;;;;;;;3.92;0.47;;;17.20;99.90;;;;;;6729276;88;20651;-78
2021/09/29 12:42:36;;;;;;;4.45;0.60;;;12.30;99.90;;;;;;6742491;88;20287;-77
2021/09/29 12:52:38;;;;;;;2.15;0.70;;;11.50;99.90;;;;;;6742979;88;20225;-77
2021/09/29 13:02:39;;;;;;;1.83;0.90;;;12.40;99.90;;;;;;6729039;88;20185;-77
2021/09/29 13:12:40;;;;;;;1.60;0.80;;;14.50;99.90;;;;;;6726731;88;20186;-77
2021/09/29 13:22:41;;;;;;;3.00;1.00;;;16.30;99.90;;;;;;6732012;88;20246;-77
2021/09/29 13:43:01;;;;;;;2.97;0.90;;;18.00;99.90;;;;;;6722765;88;20198;-77
2021/09/29 13:53:03;;;;;;;1.70;1.00;;;18.20;99.90;;;;;;6731043;88;20210;-77
2021/09/29 14:34:15;;;;;;;3.40;0.80;;;14.00;99.90;;;;;;6729044;88;20696;-79
2021/09/29 14:44:16;;;;;;;3.97;1.00;;;15.50;99.90;;;;;;6725289;88;20190;-77
2021/09/29 14:54:17;;;;;;;1.48;0.70;;;16.40;99.90;;;;;;6726970;88;20189;-77
2021/09/29 15:04:17;;;;;;;1.77;0.62;;;16.60;99.90;;;;;;6722683;88;20314;-77
2021/09/29 15:14:27;;;;;;;2.22;0.80;;;15.70;99.90;;;;;;6722286;88;20185;-77
2021/09/29 16:05:38;;;;;;;4.30;0.90;;;15.40;99.90;;;;;;6734408;88;20190;-78
2021/09/29 16:36:01;;;;;;;2.10;0.52;;;14.10;99.90;;;;;;6733869;88;20197;-78
2021/09/29 16:46:02;;;;;;;3.30;0.50;;;14.10;99.90;;;;;;6730350;88;20243;-78
2021/09/29 16:56:03;;;;;;;1.15;0.60;;;14.00;99.90;;;;;;6725586;88;20232;-78
2021/09/29 17:06:04;;;;;;;1.33;0.60;;;13.70;99.90;;;;;;6727569;88;20813;-78
2021/09/29 17:16:10;;;;;;;2.62;0.75;;;13.30;99.90;;;;;;6725199;88;20838;-79
2021/09/29 17:26:12;;;;;;;3.00;0.60;;;13.10;99.90;;;;;;6726113;88;20185;-79
2021/09/29 17:56:33;;;;;;;2.03;0.80;;;12.50;99.90;;;;;;6723712;88;20188;-78
2021/09/29 18:06:44;;;;;;;1.62;0.75;;;12.20;99.90;;;;;;6718754;88;20266;-77
2021/09/29 18:16:45;;;;;;;2.05;0.70;;;11.90;99.90;;;;;;6713756;88;20239;-77
2021/09/29 18:26:48;;;;;;;2.47;0.55;;;11.80;99.90;;;;;;6722656;88;20318;-78
2021/09/29 18:36:49;;;;;;;1.48;0.57;;;11.60;99.90;;;;;;6726230;88;20214;-79
2021/09/29 18:46:50;;;;;;;2.17;0.70;;;11.50;99.90;;;;;;6730403;88;20210;-76
2021/09/29 19:07:16;;;;;;;1.95;0.80;;;11.40;99.90;;;;;;6723273;88;20189;-77
2021/09/29 19:17:17;;;;;;;2.15;0.80;;;11.50;99.90;;;;;;6715295;88;20654;-77
2021/09/29 19:27:18;;;;;;;3.65;1.02;;;11.30;99.90;;;;;;6726603;88;20211;-78
2021/09/29 19:37:18;;;;;;;4.90;1.23;;;11.20;99.90;;;;;;6736346;88;20197;-78
2021/09/29 20:07:48;;;;;;;4.50;0.60;;;11.20;99.90;;;;;;6707327;88;20229;-79
2021/09/29 20:17:54;;;;;;;2.42;0.57;;;11.20;99.90;;;;;;6706446;88;20219;-78
2021/09/29 20:27:56;;;;;;;;;;;11.00;99.90;;;;;;6705518;88;21039;-77
2021/09/29 20:48:17;;;;;;;2.50;0.60;;;10.90;99.90;;;;;;6704894;88;20637;-78
2021/09/29 20:58:17;;;;;;;1.90;0.60;;;11.00;99.90;;;;;;6702174;88;20275;-77
2021/09/29 21:08:20;;;;;;;2.20;0.90;;;11.20;99.90;;;;;;6704331;88;20250;-78
2021/09/29 21:18:20;;;;;;;2.50;0.80;;;11.10;99.90;;;;;;6704490;88;20323;-78
2021/09/29 21:28:21;;;;;;;2.30;0.75;;;10.90;99.90;;;;;;6711521;88;20360;-78
2021/09/29 21:38:38;;;;;;;1.75;0.60;;;10.70;99.90;;;;;;6738704;88;21124;-77
2021/09/29 21:59:27;;;;;;;4.47;0.63;;;10.80;99.90;;;;;;6704560;88;20244;-79
2021/09/29 23:41:44;;;;;;;6.28;0.82;;;10.30;99.90;;;;;;6780371;87;20163;-75
2021/09/29 23:51:45;;;;;;;5.18;0.75;;;10.30;99.90;;;;;;6788134;87;20675;-75
